This is the latest recevied weather packets stored in our database for station/object KB4MOX. If no packets are shown the sender has not sent any weather packets the latest 10 day(s).
| Time | Temp. | Humidity | Pressure | Rain* | Wind** | Luminosity | Snow |
|---|---|---|---|---|---|---|---|
| 1777727790 | 13.33° C | 98% | 1013.4 hPa | 0 mm | - | 42 W/m² | - |
| 1777727486 | 13.33° C | 97% | 1013.2 hPa | 0 mm | - | 37 W/m² | - |
| 1777727184 | 13.33° C | 98% | 1013.3 hPa | 0 mm | - | 29 W/m² | - |
| 1777726882 | 13.33° C | 97% | 1013.2 hPa | 0 mm | - | 25 W/m² | - |
| 1777726577 | 13.33° C | 98% | 1012.9 hPa | 0 mm | - | 28 W/m² | - |
| 1777726275 | 13.33° C | 98% | 1013 hPa | 0 mm | - | 25 W/m² | - |
| 1777725972 | 13.33° C | 98% | 1012.8 hPa | 0 mm | - | 32 W/m² | - |
| 1777725669 | 13.33° C | 98% | 1012.2 hPa | 0 mm | - | 43 W/m² | - |
| 1777725368 | 12.78° C | 98% | 1012.3 hPa | 0 mm | - | 35 W/m² | - |
| 1777725064 | 12.78° C | 98% | 1012.6 hPa | 0 mm | - | 27 W/m² | - |
| 1777724761 | 12.78° C | 98% | 1012.5 hPa | 0 mm | - | 24 W/m² | - |
| 1777724457 | 12.78° C | 97% | 1012.6 hPa | 0 mm | - | 19 W/m² | - |
| 1777724155 | 12.78° C | 98% | 1012.2 hPa | 0 mm | - | 26 W/m² | - |
| 1777723852 | 12.78° C | 98% | 1011.8 hPa | 0 mm | - | 44 W/m² | - |
| 1777723548 | 12.78° C | 97% | 1011.4 hPa | 0 mm | - | 45 W/m² | - |
| 1777723245 | 12.78° C | 97% | 1011.4 hPa | 1.27 mm | - | 22 W/m² | - |
| 1777722944 | 12.22° C | 98% | 1011.5 hPa | 1.27 mm | - | 18 W/m² | - |
| 1777722639 | 12.22° C | 97% | 1011.4 hPa | 1.78 mm | - | 20 W/m² | - |
| 1777722336 | 12.22° C | 97% | 1012.1 hPa | 3.05 mm | - | 21 W/m² | - |
| 1777722032 | 12.22° C | 97% | 1012.3 hPa | 3.05 mm | - | 18 W/m² | - |
| 1777721730 | 12.22° C | 97% | 1012.4 hPa | 3.05 mm | - | 8 W/m² | - |
| 1777721429 | 12.22° C | 97% | 1012.6 hPa | 1.78 mm | - | 4 W/m² | - |
| 1777721126 | 11.67° C | 97% | 1012.6 hPa | 1.78 mm | - | 3 W/m² | - |
| 1777720823 | 11.67° C | 97% | 1012.5 hPa | 1.78 mm | - | 2 W/m² | - |
| 1777720521 | 11.67° C | 97% | 1012.5 hPa | 1.78 mm | - | 2 W/m² | - |
* Rain latest hour (hover to see other rain measurements)
** Current wind speed in m/s (hover to see current wind gust speed)